SBVTSBPS

Guest
Details From SBVT - Goiabeiras
To SBPS - Porto Seguro
Flight Number -
Tags generated
Created
Modified
Stats Distance 241 nm / 446 km
Max Altitude 23,200 ft / 7,071 m
Waypoints 6
Social Downloads 0
Likes 0
Share VATSIM

Download

Looking for another format? Having issues loading an existing format? Contact us
Advertisement - Login to hide

Notes

Basic altitude profile: - Ascent Rate: 2500ft/min - Ascent Speed: 250kts - Cruise Altitude: 35000ft - Cruise Speed: 420kts - Descent Rate: 1500ft/min - Descent Speed: 250kts Options: - Use NATs: yes - Use PACOTS: yes - Use low airways: yes - Use high airways: no

Route

SBVT VTR G677 CVL SBPS

ID Type Via Altitude Latitude Longitude Leg Dist Tot Dist Heading (true) Name
O SBVT APT - 0 ft / 0 m -20.25561˚ -40.28889˚ - 0 nm - Goiabeiras
VTR VOR - 100 ft / 30 m -20.24967˚ -40.28300˚ 0 nm 0 nm 43° / 43° VITORIA VOR-DME
GIDOD FIX G677 (AWY-LO) 13,500 ft / 4,115 m -19.62367˚ -40.03250˚ 40 nm 40 nm 21° / 21° -
EUDES FIX G677 (AWY-LO) 23,200 ft / 7,071 m -18.26900˚ -39.49767˚ 86 nm 127 nm 21° / 20° -
CVL NDB G677 (AWY-LO) 15,700 ft / 4,785 m -17.65417˚ -39.24983˚ 39 nm 167 nm 21° / 21° CARAVELAS NDB
O SBPS APT - 0 ft / 0 m -16.43863˚ -39.08092˚ 73 nm 240 nm 8° / 8° Porto Seguro

Altitude Profile

Advertisement - Login to hide

Weather


0- 5 10 15 20 25 30 35+ Temperature / ° C

Clouds and Precipitation
Forecast for 2018-05-21 18:00 UTC. Updated 29 minutes ago

Ground ~20,000 ft ~40,000 ft Winds

SBVT

Details ICAO SBVT (VIX)
Name Goiabeiras
Region Brazil
Timezone America/Sao_Paulo (UTC-3.0)
Stats Elevation 11 ft / 3 m (AMSL)
Location -20.255611° -40.288893°
Runways 1
Magnetic Variation 23.828° W

METAR

SBVT 211500Z 16010KT 9999 SCT020 24/17 Q1017

Decode

TAF

TAF SBVT 211000Z 2112/2212 17009KT 9999 BKN025 TX29/2116Z TN23/2202Z BECMG 2113/2115 SCT020 RMK PEI

Decode

Departure Runways

ID Width Length Bearing (true) Bearing (mag) Surface Threshold Offset Overrun Length
05 148 ft / 45 m 5,769 ft / 1,759 m 31.71° 55.54° Asphalt 0 ft / 0 m 189 ft / 58 m
23 148 ft / 45 m 5,769 ft / 1,759 m 211.71° 235.54° Asphalt 0 ft / 0 m 189 ft / 58 m

SBPS

Details ICAO SBPS (BPS)
Name Porto Seguro
Region Brazil
Timezone America/Bahia (UTC-3.0)
Stats Elevation 168 ft / 51 m (AMSL)
Location -16.438625° -39.080917°
Runways 1
Magnetic Variation 23.888° W

METAR

SBPS 211500Z VRB03KT 9999 VCSH SCT009 SCT021 BKN040 26/23 Q1015

Decode

TAF

TAF SBPS 211000Z 2112/2212 18010KT 9999 BKN020 TX28/2116Z TN22/2207Z TEMPO 2112/2116 4000 SHRA BKN010 BKN017 BECMG2117/2119 SCT020 BECMG 2202/2204 26004KT RMK PEI

Decode

Destination Runways

ID Width Length Bearing (true) Bearing (mag) Surface Threshold Offset Overrun Length
10 148 ft / 45 m 6,532 ft / 1,991 m 74.06° 97.95° Asphalt 0 ft / 0 m 195 ft / 59 m
28 148 ft / 45 m 6,532 ft / 1,991 m 254.06° 277.95° Asphalt 0 ft / 0 m 0 ft / 0 m

Popular Alternatives